Pagrindinis puslapis
METAR-TAF:

METAR-TAF

Oro uostai :

Erzindžanas, Turkija

platuma: 39-44N, ilguma: 039-30E, Aukštis: 1156 m

Dabartinis oras

Ataskaita buvo paskelbta 39 minutes, ne 02:50 UTC
Vėjas 15 kt iš Vakarų, svyruoja nuo Pietvakarių ir Vakarų/Šiaurės Vakarų
Temperatūra 10°C
Drėgmė 66%
Slėgis 1004 hPa
Matomumas 10 km arba daugiau
Su prošvaistėmis ne aukštis 4000 ft
Su prošvaistėmis ne aukštis 10000 ft
lietus

METAR: LTCD 010250Z 27015KT 220V300 9999 -RA BKN040 BKN100 10/04 Q1004 NOSIG

Laikas: 06:29 (03:29 UTC)

Prognozė

Ataskaita buvo paskelbta 1 valandą ir 49 minutes, ne 01:40 UTC
Prognozė galioja nuo 01 metu 03 UTC su 01 metu 12 UTC
Vėjas 18 kt iš Vakarų
Matomumas 10 km arba daugiau
Su prošvaistėmis ne aukštis 4000 ft
Su prošvaistėmis ne aukštis 9000 ft
lietus
Laikinai
nuo 01 metu 03 UTC su 01 metu 06 UTC
Vėjas 20 kt iš Vakarų su gūsio iki 30 kt

TAF: LTCD 010140Z 0103/0112 27018KT 9999 -RA BKN040 BKN090 TEMPO 0103/0106 27020G30KT

Orai ataskaitas ir orų prognozės (METAR, TAF).

turimą stotys yra geltonos ir raudonos taškus žemėlapyje.

Perkelti pele per norėdami pamatyti stoties vardą.

Tada spustelėkite, norėdami matyti oro stebėjimo ir prognozės.

Norėdami pakeisti žemėlapį: spustelėkite ant žalios mygtukų su juodo kryžiaus žemyn,; žalią mygtuką su brūkšneliu, jei norite nutolinti; arba žalių rodyklių gretimoms žemėlapius.


METAR-TAF: